Time,TemperatureF,DewpointF,PressureIn,WindDirection,WindDirectionDegrees,WindSpeedMPH,WindSpeedGustMPH,Humidity,HourlyPrecipIn,Conditions,Clouds,dailyrainin,SoftwareType,DateUTC
2013-07-31 00:00:00,55.2,55.2,30.09,SSW,207,0.0,2.2,100,0.00,,---,0.00,VWS V14.01,2013-07-31 04:00:00,
2013-07-31 00:05:00,54.3,54.3,30.09,SSW,205,0.0,0.0,100,0.00,,---,0.00,VWS V14.01,2013-07-31 04:05:00,
2013-07-31 00:10:00,53.8,53.8,30.09,SSW,207,0.0,0.0,100,0.00,,---,0.00,VWS V14.01,2013-07-31 04:10:00,
2013-07-31 00:15:00,54.0,54.0,30.09,SSW,207,0.0,0.0,100,0.00,,---,0.00,VWS V14.01,2013-07-31 04:15:00,
2013-07-31 00:20:00,54.0,54.0,30.09,SSW,207,0.0,0.0,100,0.00,,---,0.00,VWS V14.01,2013-07-31 04:20:00,
2013-07-31 00:25:00,54.0,54.0,30.09,SSW,207,0.0,0.0,100,0.00,,---,0.00,VWS V14.01,2013-07-31 04:25:00,
2013-07-31 00:30:00,55.8,55.8,30.09,SSW,207,1.8,3.6,100,0.00,,---,0.00,VWS V14.01,2013-07-31 04:30:00,
2013-07-31 00:35:00,54.0,54.0,30.09,SSW,207,0.0,0.0,100,0.00,,---,0.00,VWS V14.01,2013-07-31 04:35:00,
2013-07-31 00:40:00,55.8,55.8,30.09,SSW,207,2.7,2.7,100,0.00,,---,0.00,VWS V14.01,2013-07-31 04:40:00,
2013-07-31 00:45:00,53.6,53.6,30.09,SSW,207,0.0,0.0,100,0.00,,---,0.00,VWS V14.01,2013-07-31 04:45:00,
2013-07-31 00:50:00,55.2,55.2,30.09,SSW,207,2.2,3.6,100,0.00,,---,0.00,VWS V14.01,2013-07-31 04:50:00,
2013-07-31 00:55:00,52.5,52.5,30.09,SSW,207,0.0,0.0,100,0.00,,---,0.00,VWS V14.01,2013-07-31 04:55:00,
2013-07-31 01:00:00,52.9,52.9,30.09,SSW,207,0.0,0.0,100,0.00,,---,0.00,VWS V14.01,2013-07-31 05:00:00,
2013-07-31 01:05:00,52.7,52.7,30.09,SSW,207,0.0,0.0,100,0.00,,---,0.00,VWS V14.01,2013-07-31 05:05:00,
2013-07-31 01:10:00,52.7,52.7,30.09,SSW,207,0.0,0.0,100,0.00,,---,0.00,VWS V14.01,2013-07-31 05:10:00,
2013-07-31 01:15:00,54.0,54.0,30.09,SSW,207,0.0,0.0,100,0.00,,---,0.00,VWS V14.01,2013-07-31 05:15:00,
2013-07-31 01:20:00,52.7,52.7,30.09,SSW,207,0.0,0.0,100,0.00,,---,0.00,VWS V14.01,2013-07-31 05:20:00,
2013-07-31 01:25:00,54.0,54.0,30.09,SSW,207,0.0,0.0,100,0.00,,---,0.00,VWS V14.01,2013-07-31 05:25:00,
2013-07-31 01:30:00,52.9,52.9,30.09,SSW,207,0.0,0.0,100,0.00,,---,0.00,VWS V14.01,2013-07-31 05:30:00,
2013-07-31 01:35:00,54.0,54.0,30.09,SSW,207,0.0,0.0,100,0.00,,---,0.00,VWS V14.01,2013-07-31 05:35:00,
2013-07-31 01:40:00,52.9,52.9,30.09,SSW,207,0.0,0.0,100,0.00,,---,0.00,VWS V14.01,2013-07-31 05:40:00,
2013-07-31 01:45:00,53.6,53.6,30.09,SSW,207,0.0,0.0,100,0.00,,---,0.00,VWS V14.01,2013-07-31 05:45:00,
2013-07-31 01:50:00,53.2,53.2,30.09,SSW,204,0.0,0.0,100,0.00,,---,0.00,VWS V14.01,2013-07-31 05:50:00,
2013-07-31 01:55:00,53.4,53.4,30.09,SSW,207,3.6,4.5,100,0.00,,---,0.00,VWS V14.01,2013-07-31 05:55:00,
2013-07-31 02:00:00,53.6,53.6,30.09,SSW,207,4.5,5.4,100,0.00,,---,0.00,VWS V14.01,2013-07-31 06:00:00,
2013-07-31 02:05:00,53.6,53.6,30.09,SSW,208,2.2,5.4,100,0.00,,---,0.00,VWS V14.01,2013-07-31 06:05:00,
2013-07-31 02:10:00,52.7,52.7,30.09,SSW,207,0.0,0.0,100,0.00,,---,0.00,VWS V14.01,2013-07-31 06:10:00,
2013-07-31 02:15:00,53.2,53.2,30.09,SSW,207,1.8,2.7,100,0.00,,---,0.00,VWS V14.01,2013-07-31 06:15:00,
2013-07-31 02:20:00,52.7,52.7,30.09,SSW,207,0.0,0.0,100,0.00,,---,0.00,VWS V14.01,2013-07-31 06:20:00,
2013-07-31 02:25:00,52.5,52.5,30.09,SSW,208,1.8,3.6,100,0.00,,---,0.00,VWS V14.01,2013-07-31 06:25:00,
2013-07-31 02:30:00,52.9,52.9,30.09,SSW,207,0.0,0.0,100,0.00,,---,0.00,VWS V14.01,2013-07-31 06:30:00,
2013-07-31 02:35:00,51.6,51.6,30.09,SSW,208,2.7,3.6,100,0.00,,---,0.00,VWS V14.01,2013-07-31 06:35:00,
2013-07-31 02:40:00,51.8,51.8,30.09,SSW,207,3.6,4.0,100,0.00,,---,0.00,VWS V14.01,2013-07-31 06:40:00,
2013-07-31 02:45:00,52.0,52.0,30.09,SSW,208,2.2,3.6,100,0.00,,---,0.00,VWS V14.01,2013-07-31 06:45:00,
2013-07-31 02:50:00,53.2,53.2,30.09,SSW,204,0.0,0.0,100,0.00,,---,0.00,VWS V14.01,2013-07-31 06:50:00,
2013-07-31 02:55:00,52.0,52.0,30.09,SSW,207,3.6,4.0,100,0.00,,---,0.00,VWS V14.01,2013-07-31 06:55:00,
2013-07-31 03:00:00,53.6,53.6,30.09,SSW,207,4.5,5.4,100,0.00,,---,0.00,VWS V14.01,2013-07-31 07:00:00,
2013-07-31 03:05:00,52.2,52.2,30.09,SSW,208,3.6,4.0,100,0.00,,---,0.00,VWS V14.01,2013-07-31 07:05:00,
2013-07-31 03:10:00,53.4,53.4,30.09,SSW,207,1.8,4.9,100,0.00,,---,0.00,VWS V14.01,2013-07-31 07:10:00,
2013-07-31 03:15:00,52.2,52.2,30.09,SSW,207,4.0,4.5,100,0.00,,---,0.00,VWS V14.01,2013-07-31 07:15:00,
2013-07-31 03:20:00,52.0,52.0,30.09,SSW,207,3.6,4.5,100,0.00,,---,0.00,VWS V14.01,2013-07-31 07:20:00,
2013-07-31 03:25:00,52.5,52.5,30.09,SSW,208,1.8,3.6,100,0.00,,---,0.00,VWS V14.01,2013-07-31 07:25:00,
2013-07-31 03:30:00,51.6,51.6,30.09,SSW,207,3.6,4.9,100,0.00,,---,0.00,VWS V14.01,2013-07-31 07:30:00,
2013-07-31 03:35:00,51.6,51.6,30.09,SSW,208,2.7,3.6,100,0.00,,---,0.00,VWS V14.01,2013-07-31 07:35:00,
2013-07-31 03:40:00,52.2,52.2,30.09,SSW,208,4.0,4.9,100,0.00,,---,0.00,VWS V14.01,2013-07-31 07:40:00,
2013-07-31 03:45:00,52.0,52.0,30.09,SSW,208,2.2,3.6,100,0.00,,---,0.00,VWS V14.01,2013-07-31 07:45:00,
2013-07-31 03:50:00,52.0,52.0,30.09,SSW,208,3.6,4.5,100,0.00,,---,0.00,VWS V14.01,2013-07-31 07:50:00,
2013-07-31 03:55:00,52.0,52.0,30.09,SSW,207,3.6,4.0,100,0.00,,---,0.00,VWS V14.01,2013-07-31 07:55:00,
2013-07-31 04:00:00,51.3,51.3,30.09,SSW,208,3.6,4.5,100,0.00,,---,0.00,VWS V14.01,2013-07-31 08:00:00,
2013-07-31 04:05:00,52.2,52.2,30.09,SSW,208,3.6,4.0,100,0.00,,---,0.00,VWS V14.01,2013-07-31 08:05:00,
2013-07-31 04:10:00,51.3,51.3,30.09,SSW,208,3.1,4.5,100,0.00,,---,0.00,VWS V14.01,2013-07-31 08:10:00,
2013-07-31 04:15:00,52.2,52.2,30.09,SSW,207,4.0,4.5,100,0.00,,---,0.00,VWS V14.01,2013-07-31 08:15:00,
2013-07-31 04:20:00,51.1,51.1,30.09,SSW,207,3.1,4.0,100,0.00,,---,0.00,VWS V14.01,2013-07-31 08:20:00,
2013-07-31 04:25:00,51.6,51.6,30.09,SSW,207,4.5,4.5,100,0.00,,---,0.00,VWS V14.01,2013-07-31 08:25:00,
2013-07-31 04:30:00,50.9,50.9,30.09,SSW,208,3.6,4.5,100,0.00,,---,0.00,VWS V14.01,2013-07-31 08:30:00,
2013-07-31 04:35:00,52.0,52.0,30.09,SSW,207,3.1,4.5,100,0.00,,---,0.00,VWS V14.01,2013-07-31 08:35:00,
2013-07-31 04:40:00,50.4,50.4,30.09,SSW,207,2.7,4.5,100,0.00,,---,0.00,VWS V14.01,2013-07-31 08:40:00,
2013-07-31 04:45:00,52.0,52.0,30.09,SSW,207,3.6,4.0,100,0.00,,---,0.00,VWS V14.01,2013-07-31 08:45:00,
2013-07-31 04:50:00,50.2,50.2,30.09,SSW,207,0.0,0.0,100,0.00,,---,0.00,VWS V14.01,2013-07-31 08:50:00,
2013-07-31 04:55:00,50.5,50.5,30.09,SSW,208,0.0,0.4,100,0.00,,---,0.00,VWS V14.01,2013-07-31 08:55:00,
2013-07-31 05:00:00,50.7,50.7,30.09,SSW,207,4.9,4.9,100,0.00,,---,0.00,VWS V14.01,2013-07-31 09:00:00,
2013-07-31 05:05:00,50.7,50.7,30.09,SSW,207,3.1,4.9,100,0.00,,---,0.00,VWS V14.01,2013-07-31 09:05:00,
2013-07-31 05:10:00,50.4,50.4,30.09,SSW,207,3.6,3.6,100,0.00,,---,0.00,VWS V14.01,2013-07-31 09:10:00,
2013-07-31 05:15:00,51.1,51.1,30.09,SSW,208,3.6,4.5,100,0.00,,---,0.00,VWS V14.01,2013-07-31 09:15:00,
2013-07-31 05:20:00,50.5,50.5,30.09,SSW,207,3.1,4.0,100,0.00,,---,0.00,VWS V14.01,2013-07-31 09:20:00,
2013-07-31 05:25:00,50.7,50.7,30.09,SSW,207,4.0,4.9,100,0.00,,---,0.00,VWS V14.01,2013-07-31 09:25:00,
2013-07-31 05:30:00,50.9,50.9,30.09,SSW,207,3.1,4.5,100,0.00,,---,0.00,VWS V14.01,2013-07-31 09:30:00,
2013-07-31 05:35:00,50.9,50.9,30.09,SSW,207,1.8,4.0,100,0.00,,---,0.00,VWS V14.01,2013-07-31 09:35:00,
2013-07-31 05:40:00,51.1,51.1,30.09,SSW,207,3.1,4.0,100,0.00,,---,0.00,VWS V14.01,2013-07-31 09:40:00,
2013-07-31 05:45:00,51.1,51.1,30.09,SSW,207,3.1,4.5,100,0.00,,---,0.00,VWS V14.01,2013-07-31 09:45:00,
2013-07-31 05:50:00,50.2,50.2,30.09,SSW,207,0.0,0.0,100,0.00,,---,0.00,VWS V14.01,2013-07-31 09:50:00,
2013-07-31 05:55:00,51.1,51.1,30.09,SSW,207,4.0,4.9,100,0.00,,---,0.00,VWS V14.01,2013-07-31 09:55:00,
2013-07-31 06:00:00,50.7,50.7,30.09,SSW,207,4.9,4.9,100,0.00,,---,0.00,VWS V14.01,2013-07-31 10:00:00,
2013-07-31 06:01:00,50.9,50.9,30.09,SSW,207,3.1,4.9,100,0.00,,---,0.00,VWS V14.01,2013-07-31 10:01:00,
2013-07-31 06:05:00,50.7,50.7,30.09,SSW,207,3.1,4.9,100,0.00,,---,0.00,VWS V14.01,2013-07-31 10:05:00,
2013-07-31 06:10:00,50.4,50.4,30.09,SSW,207,4.0,4.5,100,0.00,,---,0.00,VWS V14.01,2013-07-31 10:10:00,
2013-07-31 06:15:00,50.4,50.4,30.09,SSW,207,2.2,3.6,100,0.00,,---,0.00,VWS V14.01,2013-07-31 10:15:00,
2013-07-31 06:20:00,50.0,50.0,30.09,SSW,207,2.7,3.1,100,0.00,,---,0.00,VWS V14.01,2013-07-31 10:20:00,
2013-07-31 06:25:00,50.7,50.7,30.09,SSW,207,4.0,4.5,100,0.00,,---,0.00,VWS V14.01,2013-07-31 10:25:00,
2013-07-31 06:30:00,50.9,50.9,30.09,SSW,207,3.1,4.5,100,0.00,,---,0.00,VWS V14.01,2013-07-31 10:30:00,
2013-07-31 06:31:00,50.4,50.4,30.09,SSW,207,4.9,6.3,100,0.00,,---,0.00,VWS V14.01,2013-07-31 10:31:00,
2013-07-31 06:35:00,50.9,50.9,30.09,SSW,207,3.1,4.0,100,0.00,,---,0.00,VWS V14.01,2013-07-31 10:35:00,
2013-07-31 06:36:00,50.7,50.7,30.09,SSW,207,4.5,5.8,100,0.00,,---,0.00,VWS V14.01,2013-07-31 10:36:00,
2013-07-31 06:40:00,51.1,51.1,30.09,SSW,207,3.1,4.0,100,0.00,,---,0.00,VWS V14.01,2013-07-31 10:40:00,
2013-07-31 06:45:00,50.9,50.9,30.12,SSW,207,4.0,4.9,100,0.00,,---,0.00,VWS V14.01,2013-07-31 10:45:00,
2013-07-31 06:50:00,51.1,51.1,30.12,SSW,207,4.0,4.9,100,0.00,,---,0.00,VWS V14.01,2013-07-31 10:50:00,
2013-07-31 06:55:00,51.1,51.1,30.09,SSW,207,4.0,4.9,100,0.00,,---,0.00,VWS V14.01,2013-07-31 10:55:00,
2013-07-31 07:00:00,51.8,51.8,30.12,SSW,207,3.6,5.4,100,0.00,,---,0.00,VWS V14.01,2013-07-31 11:00:00,
2013-07-31 07:05:00,50.7,50.7,30.09,SSW,207,3.6,4.0,100,0.00,,---,0.00,VWS V14.01,2013-07-31 11:05:00,
2013-07-31 07:10:00,52.3,52.3,30.12,SSW,207,4.9,5.8,100,0.00,,---,0.00,VWS V14.01,2013-07-31 11:10:00,
2013-07-31 07:15:00,50.2,50.2,30.09,SSW,207,2.7,4.0,100,0.00,,---,0.00,VWS V14.01,2013-07-31 11:15:00,
2013-07-31 07:20:00,53.1,53.1,30.09,SSW,207,3.6,5.8,100,0.00,,---,0.00,VWS V14.01,2013-07-31 11:20:00,
2013-07-31 07:25:00,50.0,50.0,30.09,SSW,207,4.5,4.9,100,0.00,,---,0.00,VWS V14.01,2013-07-31 11:25:00,
2013-07-31 07:30:00,53.2,53.2,30.12,SSW,198,4.0,4.9,100,0.00,,---,0.00,VWS V14.01,2013-07-31 11:30:00,
2013-07-31 07:35:00,50.7,50.7,30.09,SSW,207,4.5,5.8,100,0.00,,---,0.00,VWS V14.01,2013-07-31 11:35:00,
2013-07-31 07:40:00,53.6,53.6,30.12,SSW,192,1.8,5.8,100,0.00,,---,0.00,VWS V14.01,2013-07-31 11:40:00,
2013-07-31 07:45:00,50.9,50.9,30.12,SSW,207,4.0,4.9,100,0.00,,---,0.00,VWS V14.01,2013-07-31 11:45:00,
2013-07-31 07:50:00,54.3,54.3,30.12,South,190,1.8,4.0,100,0.00,,---,0.00,VWS V14.01,2013-07-31 11:50:00,
2013-07-31 07:55:00,51.3,51.3,30.12,SSW,207,4.9,4.9,100,0.00,,---,0.00,VWS V14.01,2013-07-31 11:55:00,
2013-07-31 08:00:00,55.2,55.2,30.09,South,187,3.6,5.8,100,0.00,,---,0.00,VWS V14.01,2013-07-31 12:00:00,
2013-07-31 08:05:00,52.2,52.2,30.12,SSW,207,5.4,5.8,100,0.00,,---,0.00,VWS V14.01,2013-07-31 12:05:00,
2013-07-31 08:10:00,56.7,56.7,30.09,South,178,3.6,5.8,100,0.00,,---,0.00,VWS V14.01,2013-07-31 12:10:00,
2013-07-31 08:15:00,52.7,52.7,30.09,SSW,207,4.5,5.8,100,0.00,,---,0.00,VWS V14.01,2013-07-31 12:15:00,
2013-07-31 08:20:00,57.6,57.6,30.09,South,178,0.9,3.1,100,0.00,,---,0.00,VWS V14.01,2013-07-31 12:20:00,
2013-07-31 08:25:00,53.1,53.1,30.09,SSW,198,2.7,5.8,100,0.00,,---,0.00,VWS V14.01,2013-07-31 12:25:00,
2013-07-31 08:30:00,58.3,58.3,30.09,South,178,2.2,4.9,100,0.00,,---,0.00,VWS V14.01,2013-07-31 12:30:00,
2013-07-31 08:35:00,53.2,53.2,30.12,SSW,198,5.8,5.8,100,0.00,,---,0.00,VWS V14.01,2013-07-31 12:35:00,
2013-07-31 08:40:00,59.5,59.5,30.09,South,180,4.5,5.8,100,0.00,,---,0.00,VWS V14.01,2013-07-31 12:40:00,
2013-07-31 08:45:00,59.9,59.9,30.09,SSE,167,1.3,4.9,100,0.00,,---,0.00,VWS V14.01,2013-07-31 12:45:00,
2013-07-31 08:50:00,60.3,60.3,30.09,SSE,167,3.6,4.9,100,0.00,,---,0.00,VWS V14.01,2013-07-31 12:50:00,
2013-07-31 08:55:00,54.5,54.5,30.12,South,190,2.2,4.0,100,0.00,,---,0.00,VWS V14.01,2013-07-31 12:55:00,
2013-07-31 09:00:00,61.9,59.8,30.09,SSE,167,1.8,4.5,93,0.00,,---,0.00,VWS V14.01,2013-07-31 13:00:00,
2013-07-31 09:05:00,62.8,59.5,30.09,South,169,4.5,4.9,89,0.00,,---,0.00,VWS V14.01,2013-07-31 13:05:00,
2013-07-31 09:10:00,63.5,58.2,30.09,South,170,0.9,4.5,83,0.00,,---,0.00,VWS V14.01,2013-07-31 13:10:00,
2013-07-31 09:15:00,57.4,57.4,30.09,South,178,2.7,4.5,100,0.00,,---,0.00,VWS V14.01,2013-07-31 13:15:00,
2013-07-31 09:20:00,65.8,58.4,30.09,South,170,1.8,3.1,77,0.00,,---,0.00,VWS V14.01,2013-07-31 13:20:00,
2013-07-31 09:25:00,67.1,58.2,30.09,South,170,0.0,1.8,73,0.00,,---,0.00,VWS V14.01,2013-07-31 13:25:00,
2013-07-31 09:30:00,68.5,59.5,30.09,South,170,0.0,0.0,73,0.00,,---,0.00,VWS V14.01,2013-07-31 13:30:00,
2013-07-31 09:35:00,58.8,58.8,30.09,South,178,3.6,4.5,100,0.00,,---,0.00,VWS V14.01,2013-07-31 13:35:00,
2013-07-31 09:40:00,69.1,56.4,30.09,SSE,166,2.7,4.9,64,0.00,,---,0.00,VWS V14.01,2013-07-31 13:40:00,
2013-07-31 09:45:00,59.9,59.9,30.09,SSE,167,1.3,4.9,100,0.00,,---,0.00,VWS V14.01,2013-07-31 13:45:00,
2013-07-31 09:50:00,70.5,57.3,30.09,SSE,166,0.0,4.0,63,0.00,,---,0.00,VWS V14.01,2013-07-31 13:50:00,
2013-07-31 09:55:00,71.2,58.0,30.09,South,169,2.7,4.0,63,0.00,,---,0.00,VWS V14.01,2013-07-31 13:55:00,
2013-07-31 10:00:00,72.0,58.2,30.09,South,169,0.0,3.1,62,0.00,,---,0.00,VWS V14.01,2013-07-31 14:00:00,
2013-07-31 10:05:00,62.8,59.5,30.09,South,169,4.5,4.9,89,0.00,,---,0.00,VWS V14.01,2013-07-31 14:05:00,
2013-07-31 10:10:00,72.0,56.9,30.09,SE,143,0.9,4.5,59,0.00,,---,0.00,VWS V14.01,2013-07-31 14:10:00,
2013-07-31 10:15:00,72.0,56.9,30.09,SE,145,0.0,2.2,59,0.00,,---,0.00,VWS V14.01,2013-07-31 14:15:00,
2013-07-31 10:20:00,72.5,58.3,30.09,ENE,71,0.4,4.0,61,0.00,,---,0.00,VWS V14.01,2013-07-31 14:20:00,
2013-07-31 10:25:00,67.1,58.2,30.09,South,170,0.0,1.8,73,0.00,,---,0.00,VWS V14.01,2013-07-31 14:25:00,
2013-07-31 10:30:00,71.8,56.7,30.09,NE,53,0.0,0.0,59,0.00,,---,0.00,VWS V14.01,2013-07-31 14:30:00,
2013-07-31 10:35:00,69.1,59.3,30.09,South,170,2.7,2.7,71,0.00,,---,0.00,VWS V14.01,2013-07-31 14:35:00,
2013-07-31 10:40:00,73.2,58.0,30.09,SSE,166,3.1,3.6,59,0.00,,---,0.00,VWS V14.01,2013-07-31 14:40:00,
2013-07-31 10:45:00,69.4,57.2,30.09,SSE,166,1.3,2.7,65,0.00,,---,0.00,VWS V14.01,2013-07-31 14:45:00,
2013-07-31 10:50:00,73.8,57.1,30.09,East,88,3.1,6.3,56,0.00,,---,0.00,VWS V14.01,2013-07-31 14:50:00,
2013-07-31 10:55:00,74.1,57.4,30.09,ENE,77,0.0,4.5,56,0.00,,---,0.00,VWS V14.01,2013-07-31 14:55:00,
2013-07-31 11:00:00,74.5,57.8,30.09,ENE,77,0.0,0.9,56,0.00,,---,0.00,VWS V14.01,2013-07-31 15:00:00,
2013-07-31 11:05:00,72.0,57.8,30.09,WSW,252,0.0,4.9,61,0.00,,---,0.00,VWS V14.01,2013-07-31 15:05:00,
2013-07-31 11:10:00,73.4,56.8,30.09,South,184,3.6,4.5,56,0.00,,---,0.00,VWS V14.01,2013-07-31 15:10:00,
2013-07-31 11:15:00,72.0,56.9,30.09,SE,145,0.0,2.2,59,0.00,,---,0.00,VWS V14.01,2013-07-31 15:15:00,
2013-07-31 11:20:00,73.0,56.4,30.09,South,184,0.0,0.4,56,0.00,,---,0.00,VWS V14.01,2013-07-31 15:20:00,
2013-07-31 11:25:00,71.6,56.5,30.09,NE,56,0.0,4.5,59,0.00,,---,0.00,VWS V14.01,2013-07-31 15:25:00,
2013-07-31 11:30:00,74.3,57.6,30.09,ESE,122,6.7,6.7,56,0.00,,---,0.00,VWS V14.01,2013-07-31 15:30:00,
2013-07-31 11:35:00,72.0,56.9,30.09,SE,138,0.0,2.7,59,0.00,,---,0.00,VWS V14.01,2013-07-31 15:35:00,
2013-07-31 11:40:00,73.2,58.0,30.09,SSE,166,3.1,3.6,59,0.00,,---,0.00,VWS V14.01,2013-07-31 15:40:00,
2013-07-31 11:41:00,74.1,57.4,30.09,ESE,123,1.3,3.1,56,0.00,,---,0.00,VWS V14.01,2013-07-31 15:41:00,
2013-07-31 11:45:00,74.7,58.9,30.09,SSE,149,0.4,3.6,58,0.00,,---,0.00,VWS V14.01,2013-07-31 15:45:00,
2013-07-31 11:50:00,73.8,57.1,30.09,East,88,3.1,6.3,56,0.00,,---,0.00,VWS V14.01,2013-07-31 15:50:00,
2013-07-31 11:51:00,76.1,58.8,30.09,ESE,112,0.0,3.1,55,0.00,,---,0.00,VWS V14.01,2013-07-31 15:51:00,
2013-07-31 11:55:00,74.1,57.4,30.09,ENE,77,0.0,4.5,56,0.00,,---,0.00,VWS V14.01,2013-07-31 15:55:00,
2013-07-31 12:00:00,74.5,57.8,30.09,ENE,77,0.0,0.9,56,0.00,,---,0.00,VWS V14.01,2013-07-31 16:00:00,
2013-07-31 12:01:00,75.0,58.3,30.06,SE,129,6.3,8.5,56,0.00,,---,0.00,VWS V14.01,2013-07-31 16:01:00,
2013-07-31 12:05:00,74.5,57.8,30.09,SSE,159,1.3,3.6,56,0.00,,---,0.00,VWS V14.01,2013-07-31 16:05:00,
2013-07-31 12:10:00,76.3,58.9,30.06,South,188,5.4,7.2,55,0.00,,---,0.00,VWS V14.01,2013-07-31 16:10:00,
2013-07-31 12:15:00,76.1,57.8,30.06,South,191,1.3,6.3,53,0.00,,---,0.00,VWS V14.01,2013-07-31 16:15:00,
2013-07-31 12:20:00,76.5,58.1,30.06,SSW,198,0.0,4.9,53,0.00,,---,0.00,VWS V14.01,2013-07-31 16:20:00,
2013-07-31 12:25:00,73.6,56.9,30.09,South,184,2.2,2.2,56,0.00,,---,0.00,VWS V14.01,2013-07-31 16:25:00,
2013-07-31 12:26:00,76.5,58.1,30.06,SSE,159,1.3,9.4,53,0.00,,---,0.00,VWS V14.01,2013-07-31 16:26:00,
2013-07-31 12:30:00,74.3,57.6,30.09,ESE,122,6.7,6.7,56,0.00,,---,0.00,VWS V14.01,2013-07-31 16:30:00,
2013-07-31 12:35:00,73.6,56.9,30.09,SE,133,2.7,7.6,56,0.00,,---,0.00,VWS V14.01,2013-07-31 16:35:00,
2013-07-31 12:36:00,76.8,58.4,30.06,SSW,192,3.6,13.4,53,0.00,,---,0.00,VWS V14.01,2013-07-31 16:36:00,
2013-07-31 12:40:00,74.1,57.4,30.09,ESE,123,1.3,3.1,56,0.00,,---,0.00,VWS V14.01,2013-07-31 16:40:00,
2013-07-31 12:45:00,74.7,57.9,30.09,South,188,1.8,8.9,56,0.00,,---,0.00,VWS V14.01,2013-07-31 16:45:00,
2013-07-31 12:46:00,76.8,58.4,30.06,West,266,9.8,9.8,53,0.00,,---,0.00,VWS V14.01,2013-07-31 16:46:00,
2013-07-31 12:50:00,76.1,58.8,30.09,ESE,112,0.0,3.1,55,0.00,,---,0.00,VWS V14.01,2013-07-31 16:50:00,
2013-07-31 12:55:00,75.9,59.1,30.09,South,180,5.4,8.1,56,0.00,,---,0.00,VWS V14.01,2013-07-31 16:55:00,
2013-07-31 12:56:00,76.6,58.2,30.06,SSW,202,11.6,11.6,53,0.00,,---,0.00,VWS V14.01,2013-07-31 16:56:00,
2013-07-31 13:00:00,75.0,58.3,30.06,SE,129,6.3,8.5,56,0.00,,---,0.00,VWS V14.01,2013-07-31 17:00:00,
2013-07-31 13:05:00,75.2,56.9,30.06,SSW,208,0.0,7.6,53,0.00,,---,0.00,VWS V14.01,2013-07-31 17:05:00,
2013-07-31 13:06:00,76.6,58.2,30.06,SW,228,10.3,14.3,53,0.00,,---,0.00,VWS V14.01,2013-07-31 17:06:00,
2013-07-31 13:10:00,76.3,58.9,30.06,South,188,5.4,7.2,55,0.00,,---,0.00,VWS V14.01,2013-07-31 17:10:00,
2013-07-31 13:15:00,75.9,57.6,30.06,SW,222,9.4,12.5,53,0.00,,---,0.00,VWS V14.01,2013-07-31 17:15:00,
2013-07-31 13:20:00,77.4,58.9,30.06,SW,228,3.1,11.2,53,0.00,,---,0.00,VWS V14.01,2013-07-31 17:20:00,
2013-07-31 13:25:00,78.3,59.2,30.06,South,191,6.3,12.1,52,0.00,,---,0.00,VWS V14.01,2013-07-31 17:25:00,
2013-07-31 13:30:00,77.5,59.1,30.06,SSE,164,4.9,12.1,53,0.00,,---,0.00,VWS V14.01,2013-07-31 17:30:00,
2013-07-31 13:35:00,76.8,58.4,30.06,SSW,192,3.6,13.4,53,0.00,,---,0.00,VWS V14.01,2013-07-31 17:35:00,
2013-07-31 13:40:00,77.4,58.9,30.06,SW,221,8.1,8.1,53,0.00,,---,0.00,VWS V14.01,2013-07-31 17:40:00,
2013-07-31 13:41:00,78.6,59.5,30.06,SSW,202,0.0,5.4,52,0.00,,---,0.00,VWS V14.01,2013-07-31 17:41:00,
2013-07-31 13:45:00,76.8,58.4,30.06,West,266,9.8,9.8,53,0.00,,---,0.00,VWS V14.01,2013-07-31 17:45:00,
2013-07-31 13:50:00,77.2,58.7,30.06,SSE,147,4.5,10.3,53,0.00,,---,0.00,VWS V14.01,2013-07-31 17:50:00,
2013-07-31 13:55:00,76.6,58.2,30.06,SSW,204,10.3,10.7,53,0.00,,---,0.00,VWS V14.01,2013-07-31 17:55:00,
2013-07-31 14:00:00,78.1,59.0,30.03,South,183,5.8,11.6,52,0.00,,---,0.00,VWS V14.01,2013-07-31 18:00:00,
2013-07-31 14:05:00,78.6,59.5,30.03,South,187,8.5,9.8,52,0.00,,---,0.00,VWS V14.01,2013-07-31 18:05:00,
2013-07-31 14:10:00,76.8,58.4,30.06,WSW,256,5.8,10.3,53,0.00,,---,0.00,VWS V14.01,2013-07-31 18:10:00,
2013-07-31 14:11:00,77.4,58.9,30.03,SSW,194,6.3,11.2,53,0.00,,---,0.00,VWS V14.01,2013-07-31 18:11:00,
2013-07-31 14:15:00,75.9,57.6,30.06,SW,222,9.4,12.5,53,0.00,,---,0.00,VWS V14.01,2013-07-31 18:15:00,
2013-07-31 14:20:00,76.5,58.1,30.03,South,181,2.7,7.6,53,0.00,,---,0.00,VWS V14.01,2013-07-31 18:20:00,
2013-07-31 14:25:00,78.3,59.2,30.06,South,191,6.3,12.1,52,0.00,,---,0.00,VWS V14.01,2013-07-31 18:25:00,
2013-07-31 14:26:00,76.1,57.8,30.03,SSW,192,1.8,9.8,53,0.00,,---,0.00,VWS V14.01,2013-07-31 18:26:00,
2013-07-31 14:30:00,77.5,59.1,30.06,SSE,164,4.9,12.1,53,0.00,,---,0.00,VWS V14.01,2013-07-31 18:30:00,
2013-07-31 14:35:00,76.8,58.4,30.06,South,191,1.8,11.2,53,0.00,,---,0.00,VWS V14.01,2013-07-31 18:35:00,
2013-07-31 14:36:00,78.4,59.4,30.03,SSW,192,0.0,0.0,52,0.00,,---,0.00,VWS V14.01,2013-07-31 18:36:00,
2013-07-31 14:40:00,78.6,59.5,30.06,SSW,202,0.0,5.4,52,0.00,,---,0.00,VWS V14.01,2013-07-31 18:40:00,
2013-07-31 14:45:00,76.8,58.4,30.03,SSW,197,3.6,6.7,53,0.00,,---,0.00,VWS V14.01,2013-07-31 18:45:00,
2013-07-31 14:50:00,76.6,58.2,30.03,SSE,164,2.7,8.5,53,0.00,,---,0.00,VWS V14.01,2013-07-31 18:50:00,
2013-07-31 14:55:00,76.6,58.2,30.06,SSW,204,10.3,10.7,53,0.00,,---,0.00,VWS V14.01,2013-07-31 18:55:00,
2013-07-31 14:56:00,77.4,58.9,30.03,SSE,167,0.0,4.0,53,0.00,,---,0.00,VWS V14.01,2013-07-31 18:56:00,
2013-07-31 15:00:00,78.1,59.0,30.03,South,183,5.8,11.6,52,0.00,,---,0.00,VWS V14.01,2013-07-31 19:00:00,
2013-07-31 15:05:00,78.3,59.2,30.03,SE,143,4.5,8.1,52,0.00,,---,0.00,VWS V14.01,2013-07-31 19:05:00,
2013-07-31 15:10:00,77.4,58.9,30.03,SSW,194,6.3,11.2,53,0.00,,---,0.00,VWS V14.01,2013-07-31 19:10:00,
2013-07-31 15:11:00,76.8,58.4,30.03,SSW,194,0.9,8.5,53,0.00,,---,0.00,VWS V14.01,2013-07-31 19:11:00,
2013-07-31 15:15:00,77.0,58.6,30.03,South,190,4.5,8.9,53,0.00,,---,0.00,VWS V14.01,2013-07-31 19:15:00,
2013-07-31 15:20:00,75.7,57.4,30.03,South,173,0.4,7.6,53,0.00,,---,0.00,VWS V14.01,2013-07-31 19:20:00,
2013-07-31 15:25:00,75.9,57.6,30.03,SW,222,3.1,6.7,53,0.00,,---,0.00,VWS V14.01,2013-07-31 19:25:00,
2013-07-31 15:30:00,76.1,57.8,30.03,South,181,2.7,7.6,53,0.00,,---,0.00,VWS V14.01,2013-07-31 19:30:00,
2013-07-31 15:35:00,77.0,58.6,30.03,SSW,204,4.9,6.3,53,0.00,,---,0.00,VWS V14.01,2013-07-31 19:35:00,
2013-07-31 15:40:00,78.4,59.4,30.03,SSW,204,9.4,10.3,52,0.00,,---,0.00,VWS V14.01,2013-07-31 19:40:00,
2013-07-31 15:45:00,77.2,58.7,30.00,SSW,194,3.6,9.8,53,0.00,,---,0.00,VWS V14.01,2013-07-31 19:45:00,
2013-07-31 15:50:00,77.2,58.7,30.00,SSW,207,3.1,8.9,53,0.00,,---,0.00,VWS V14.01,2013-07-31 19:50:00,
2013-07-31 15:55:00,77.4,58.9,30.03,SSE,167,0.0,4.0,53,0.00,,---,0.00,VWS V14.01,2013-07-31 19:55:00,
2013-07-31 16:00:00,77.4,58.9,30.00,SSW,211,5.8,6.7,53,0.00,,---,0.00,VWS V14.01,2013-07-31 20:00:00,
2013-07-31 16:05:00,77.7,59.2,30.00,West,269,3.6,6.7,53,0.00,,---,0.00,VWS V14.01,2013-07-31 20:05:00,
2013-07-31 16:10:00,76.8,58.4,30.00,WSW,249,7.2,8.5,53,0.00,,---,0.00,VWS V14.01,2013-07-31 20:10:00,
2013-07-31 16:15:00,75.6,57.2,30.00,SW,222,6.7,8.1,53,0.00,,---,0.00,VWS V14.01,2013-07-31 20:15:00,
2013-07-31 16:20:00,75.7,57.4,30.00,WSW,247,3.1,7.6,53,0.00,,---,0.00,VWS V14.01,2013-07-31 20:20:00,
2013-07-31 16:25:00,76.1,57.8,30.00,West,263,4.0,7.2,53,0.00,,---,0.00,VWS V14.01,2013-07-31 20:25:00,
2013-07-31 16:30:00,76.8,58.4,30.00,SW,226,4.9,7.2,53,0.00,,---,0.00,VWS V14.01,2013-07-31 20:30:00,
2013-07-31 16:35:00,77.5,59.1,30.00,South,191,3.6,7.6,53,0.00,,---,0.00,VWS V14.01,2013-07-31 20:35:00,
2013-07-31 16:40:00,77.5,59.1,30.00,South,187,8.1,8.1,53,0.00,,---,0.00,VWS V14.01,2013-07-31 20:40:00,
2013-07-31 16:45:00,77.7,59.2,30.00,SSW,208,8.9,13.9,53,0.00,,---,0.00,VWS V14.01,2013-07-31 20:45:00,
2013-07-31 16:50:00,76.6,58.2,30.00,SW,214,6.3,11.6,53,0.00,,---,0.00,VWS V14.01,2013-07-31 20:50:00,
2013-07-31 16:55:00,77.2,58.7,30.00,SSW,202,5.8,6.7,53,0.00,,---,0.00,VWS V14.01,2013-07-31 20:55:00,
2013-07-31 17:00:00,77.4,58.9,30.00,SW,232,7.2,9.4,53,0.00,,---,0.00,VWS V14.01,2013-07-31 21:00:00,
2013-07-31 17:05:00,77.2,58.7,30.00,SW,219,6.7,8.9,53,0.00,,---,0.00,VWS V14.01,2013-07-31 21:05:00,
2013-07-31 17:10:00,76.8,58.4,30.00,WSW,249,7.2,8.5,53,0.00,,---,0.00,VWS V14.01,2013-07-31 21:10:00,
2013-07-31 17:11:00,77.9,58.9,30.00,SSW,198,5.8,7.6,52,0.00,,---,0.00,VWS V14.01,2013-07-31 21:11:00,
2013-07-31 17:15:00,75.6,57.2,30.00,SW,222,6.7,8.1,53,0.00,,---,0.00,VWS V14.01,2013-07-31 21:15:00,
2013-07-31 17:16:00,77.2,58.7,29.97,SW,215,8.9,12.1,53,0.00,,---,0.00,VWS V14.01,2013-07-31 21:16:00,
2013-07-31 17:20:00,75.7,57.4,30.00,WSW,247,3.1,7.6,53,0.00,,---,0.00,VWS V14.01,2013-07-31 21:20:00,
2013-07-31 17:21:00,77.4,58.9,29.97,SSW,197,13.0,15.2,53,0.00,,---,0.00,VWS V14.01,2013-07-31 21:21:00,
2013-07-31 17:25:00,76.1,57.8,30.00,West,263,4.0,7.2,53,0.00,,---,0.00,VWS V14.01,2013-07-31 21:25:00,
2013-07-31 17:26:00,77.4,58.9,29.97,SW,223,6.3,13.0,53,0.00,,---,0.00,VWS V14.01,2013-07-31 21:26:00,
2013-07-31 17:30:00,76.8,58.4,30.00,SW,226,4.9,7.2,53,0.00,,---,0.00,VWS V14.01,2013-07-31 21:30:00,
2013-07-31 17:31:00,77.9,58.9,29.97,SSW,204,8.9,9.4,52,0.00,,---,0.00,VWS V14.01,2013-07-31 21:31:00,
2013-07-31 17:35:00,77.5,59.1,30.00,South,191,3.6,7.6,53,0.00,,---,0.00,VWS V14.01,2013-07-31 21:35:00,
2013-07-31 17:36:00,77.2,58.7,29.97,SW,219,7.2,11.6,53,0.00,,---,0.00,VWS V14.01,2013-07-31 21:36:00,
2013-07-31 17:40:00,77.5,59.1,30.00,South,187,8.1,8.1,53,0.00,,---,0.00,VWS V14.01,2013-07-31 21:40:00,
2013-07-31 17:41:00,77.0,58.6,29.97,SW,216,5.4,8.9,53,0.00,,---,0.00,VWS V14.01,2013-07-31 21:41:00,
2013-07-31 17:45:00,77.7,59.2,30.00,SSW,208,8.9,13.9,53,0.00,,---,0.00,VWS V14.01,2013-07-31 21:45:00,
2013-07-31 17:46:00,77.5,59.1,29.97,SW,225,3.1,8.9,53,0.00,,---,0.00,VWS V14.01,2013-07-31 21:46:00,
2013-07-31 17:50:00,76.6,58.2,30.00,SW,214,6.3,11.6,53,0.00,,---,0.00,VWS V14.01,2013-07-31 21:50:00,
2013-07-31 17:51:00,77.7,59.2,29.97,SW,225,3.1,6.3,53,0.00,,---,0.00,VWS V14.01,2013-07-31 21:51:00,
2013-07-31 17:55:00,77.2,58.7,30.00,SSW,202,5.8,6.7,53,0.00,,---,0.00,VWS V14.01,2013-07-31 21:55:00,
2013-07-31 17:56:00,77.7,59.2,29.97,SSW,212,2.7,8.1,53,0.00,,---,0.00,VWS V14.01,2013-07-31 21:56:00,
2013-07-31 18:00:00,77.4,58.9,30.00,SW,232,7.2,9.4,53,0.00,,---,0.00,VWS V14.01,2013-07-31 22:00:00,
2013-07-31 18:01:00,76.8,58.4,29.97,SW,232,3.1,7.2,53,0.00,,---,0.00,VWS V14.01,2013-07-31 22:01:00,
2013-07-31 18:05:00,77.2,58.7,30.00,SW,219,6.7,8.9,53,0.00,,---,0.00,VWS V14.01,2013-07-31 22:05:00,
2013-07-31 18:06:00,76.3,57.9,29.97,SW,225,3.1,6.7,53,0.00,,---,0.00,VWS V14.01,2013-07-31 22:06:00,
2013-07-31 18:10:00,77.9,58.9,30.00,SSW,198,5.8,7.6,52,0.00,,---,0.00,VWS V14.01,2013-07-31 22:10:00,
2013-07-31 18:11:00,76.5,58.1,29.97,SW,218,4.0,6.7,53,0.00,,---,0.00,VWS V14.01,2013-07-31 22:11:00,
2013-07-31 18:15:00,77.2,58.7,29.97,SW,215,8.9,12.1,53,0.00,,---,0.00,VWS V14.01,2013-07-31 22:15:00,
2013-07-31 18:16:00,76.1,57.8,29.97,SSW,205,4.5,6.7,53,0.00,,---,0.00,VWS V14.01,2013-07-31 22:16:00,
2013-07-31 18:20:00,77.4,58.9,29.97,SSW,197,13.0,15.2,53,0.00,,---,0.00,VWS V14.01,2013-07-31 22:20:00,
2013-07-31 18:21:00,76.8,58.4,29.97,SSW,208,1.8,5.4,53,0.00,,---,0.00,VWS V14.01,2013-07-31 22:21:00,
2013-07-31 18:25:00,77.4,58.9,29.97,SW,223,6.3,13.0,53,0.00,,---,0.00,VWS V14.01,2013-07-31 22:25:00,
2013-07-31 18:26:00,76.5,58.1,29.97,South,190,3.1,4.5,53,0.00,,---,0.00,VWS V14.01,2013-07-31 22:26:00,
2013-07-31 18:30:00,77.9,58.9,29.97,SSW,204,8.9,9.4,52,0.00,,---,0.00,VWS V14.01,2013-07-31 22:30:00,
2013-07-31 18:31:00,74.5,56.2,29.97,SSW,211,2.7,5.4,53,0.00,,---,0.00,VWS V14.01,2013-07-31 22:31:00,
2013-07-31 18:35:00,77.2,58.7,29.97,SW,219,7.2,11.6,53,0.00,,---,0.00,VWS V14.01,2013-07-31 22:35:00,
2013-07-31 18:36:00,73.6,55.9,29.97,SSW,211,1.8,4.0,54,0.00,,---,0.00,VWS V14.01,2013-07-31 22:36:00,
2013-07-31 18:40:00,77.0,58.6,29.97,SW,216,5.4,8.9,53,0.00,,---,0.00,VWS V14.01,2013-07-31 22:40:00,
2013-07-31 18:41:00,72.7,55.1,29.97,SSW,211,0.4,2.7,54,0.00,,---,0.00,VWS V14.01,2013-07-31 22:41:00,
2013-07-31 18:45:00,77.5,59.1,29.97,SW,225,3.1,8.9,53,0.00,,---,0.00,VWS V14.01,2013-07-31 22:45:00,
2013-07-31 18:46:00,72.0,54.4,29.97,SSW,211,0.0,0.4,54,0.00,,---,0.00,VWS V14.01,2013-07-31 22:46:00,
2013-07-31 18:50:00,77.7,59.2,29.97,SW,225,3.1,6.3,53,0.00,,---,0.00,VWS V14.01,2013-07-31 22:50:00,
2013-07-31 18:55:00,77.7,59.2,29.97,SSW,212,2.7,8.1,53,0.00,,---,0.00,VWS V14.01,2013-07-31 22:55:00,
2013-07-31 18:56:00,70.7,53.3,29.97,SSW,211,0.0,0.0,54,0.00,,---,0.00,VWS V14.01,2013-07-31 22:56:00,
2013-07-31 19:00:00,76.8,58.4,29.97,SW,232,3.1,7.2,53,0.00,,---,0.00,VWS V14.01,2013-07-31 23:00:00,
2013-07-31 19:01:00,71.6,55.1,29.97,SSW,211,0.0,0.0,56,0.00,,---,0.00,VWS V14.01,2013-07-31 23:01:00,
2013-07-31 19:05:00,76.3,57.9,29.97,SW,225,3.1,6.7,53,0.00,,---,0.00,VWS V14.01,2013-07-31 23:05:00,
2013-07-31 19:06:00,72.5,55.9,29.97,SSW,211,0.0,0.0,56,0.00,,---,0.00,VWS V14.01,2013-07-31 23:06:00,
2013-07-31 19:10:00,76.5,58.1,29.97,SW,218,4.0,6.7,53,0.00,,---,0.00,VWS V14.01,2013-07-31 23:10:00,
2013-07-31 19:11:00,72.5,55.9,29.97,SSW,211,0.0,0.0,56,0.00,,---,0.00,VWS V14.01,2013-07-31 23:11:00,
2013-07-31 19:15:00,76.1,57.8,29.97,SSW,205,4.5,6.7,53,0.00,,---,0.00,VWS V14.01,2013-07-31 23:15:00,
2013-07-31 19:16:00,72.3,55.8,29.97,SSW,211,0.0,0.0,56,0.00,,---,0.00,VWS V14.01,2013-07-31 23:16:00,
2013-07-31 19:20:00,76.8,58.4,29.97,SSW,208,1.8,5.4,53,0.00,,---,0.00,VWS V14.01,2013-07-31 23:20:00,
2013-07-31 19:21:00,72.0,55.4,29.97,SSW,211,2.2,2.2,56,0.00,,---,0.00,VWS V14.01,2013-07-31 23:21:00,
2013-07-31 19:25:00,76.5,58.1,29.97,South,190,3.1,4.5,53,0.00,,---,0.00,VWS V14.01,2013-07-31 23:25:00,
2013-07-31 19:26:00,70.9,55.8,29.97,SSW,211,0.0,2.7,59,0.00,,---,0.00,VWS V14.01,2013-07-31 23:26:00,
2013-07-31 19:30:00,74.5,56.2,29.97,SSW,211,2.7,5.4,53,0.00,,---,0.00,VWS V14.01,2013-07-31 23:30:00,
2013-07-31 19:31:00,69.6,56.0,29.94,SSW,211,0.0,0.0,62,0.00,,---,0.00,VWS V14.01,2013-07-31 23:31:00,
2013-07-31 19:35:00,73.6,55.9,29.97,SSW,211,1.8,4.0,54,0.00,,---,0.00,VWS V14.01,2013-07-31 23:35:00,
2013-07-31 19:36:00,68.0,55.0,29.94,SSW,211,0.0,0.0,63,0.00,,---,0.00,VWS V14.01,2013-07-31 23:36:00,
2013-07-31 19:40:00,72.7,55.1,29.97,SSW,211,0.4,2.7,54,0.00,,---,0.00,VWS V14.01,2013-07-31 23:40:00,
2013-07-31 19:45:00,72.0,54.4,29.97,SSW,211,0.0,0.4,54,0.00,,---,0.00,VWS V14.01,2013-07-31 23:45:00,
2013-07-31 19:46:00,65.8,54.2,29.94,SSW,211,0.0,0.0,66,0.00,,---,0.00,VWS V14.01,2013-07-31 23:46:00,
2013-07-31 19:50:00,71.4,53.9,29.97,SSW,211,0.0,0.0,54,0.00,,---,0.00,VWS V14.01,2013-07-31 23:50:00,
2013-07-31 19:51:00,65.1,55.1,29.94,SSW,211,0.0,0.0,70,0.00,,---,0.00,VWS V14.01,2013-07-31 23:51:00,
2013-07-31 19:55:00,70.7,53.3,29.97,SSW,211,0.0,0.0,54,0.00,,---,0.00,VWS V14.01,2013-07-31 23:55:00,
2013-07-31 19:56:00,64.6,55.0,29.94,SSW,212,0.0,0.0,71,0.00,,---,0.00,VWS V14.01,2013-07-31 23:56:00,
2013-07-31 20:00:00,71.6,55.1,29.97,SSW,211,0.0,0.0,56,0.00,,---,0.00,VWS V14.01,2013-08-01 00:00:00,
2013-07-31 20:01:00,64.2,54.6,29.94,SSW,211,0.0,0.0,71,0.00,,---,0.00,VWS V14.01,2013-08-01 00:01:00,
2013-07-31 20:05:00,72.5,55.9,29.97,SSW,211,0.0,0.0,56,0.00,,---,0.00,VWS V14.01,2013-08-01 00:05:00,
2013-07-31 20:06:00,63.9,54.7,29.94,SSW,211,0.0,0.4,72,0.00,,---,0.00,VWS V14.01,2013-08-01 00:06:00,
2013-07-31 20:10:00,72.5,55.9,29.97,SSW,211,0.0,0.0,56,0.00,,---,0.00,VWS V14.01,2013-08-01 00:10:00,
2013-07-31 20:11:00,63.3,54.9,29.94,SSW,211,0.0,0.0,74,0.00,,---,0.00,VWS V14.01,2013-08-01 00:11:00,
2013-07-31 20:15:00,72.3,55.8,29.97,SSW,211,0.0,0.0,56,0.00,,---,0.00,VWS V14.01,2013-08-01 00:15:00,
2013-07-31 20:16:00,62.8,54.4,29.94,SSW,212,0.0,0.0,74,0.00,,---,0.00,VWS V14.01,2013-08-01 00:16:00,
2013-07-31 20:20:00,72.0,55.4,29.97,SSW,211,2.2,2.2,56,0.00,,---,0.00,VWS V14.01,2013-08-01 00:20:00,
2013-07-31 20:21:00,62.6,54.2,29.94,SSW,211,0.0,0.0,74,0.00,,---,0.00,VWS V14.01,2013-08-01 00:21:00,
2013-07-31 20:25:00,70.9,55.9,29.97,SSW,211,0.0,2.7,59,0.00,,---,0.00,VWS V14.01,2013-08-01 00:25:00,
2013-07-31 20:26:00,62.1,54.0,29.94,SSW,211,0.0,0.0,75,0.00,,---,0.00,VWS V14.01,2013-08-01 00:26:00,
2013-07-31 20:30:00,69.6,56.0,29.94,SSW,211,0.0,0.0,62,0.00,,---,0.00,VWS V14.01,2013-08-01 00:30:00,
2013-07-31 20:31:00,61.9,53.5,29.94,SSW,211,0.0,0.0,74,0.00,,---,0.00,VWS V14.01,2013-08-01 00:31:00,
2013-07-31 20:35:00,68.0,55.0,29.94,SSW,211,0.0,0.0,63,0.00,,---,0.00,VWS V14.01,2013-08-01 00:35:00,
2013-07-31 20:36:00,61.3,53.4,29.94,SSW,211,0.0,0.0,75,0.00,,---,0.00,VWS V14.01,2013-08-01 00:36:00,
2013-07-31 20:40:00,66.9,54.8,29.94,SSW,211,0.0,0.0,65,0.00,,---,0.00,VWS V14.01,2013-08-01 00:40:00,
2013-07-31 20:41:00,61.2,53.2,29.94,SSW,211,0.0,0.0,75,0.00,,---,0.00,VWS V14.01,2013-08-01 00:41:00,
2013-07-31 20:45:00,65.8,54.2,29.94,SSW,211,0.0,0.0,66,0.00,,---,0.00,VWS V14.01,2013-08-01 00:45:00,
2013-07-31 20:46:00,61.0,53.4,29.94,SSW,211,0.0,0.0,76,0.00,,---,0.00,VWS V14.01,2013-08-01 00:46:00,
2013-07-31 20:50:00,65.1,55.1,29.94,SSW,211,0.0,0.0,70,0.00,,---,0.00,VWS V14.01,2013-08-01 00:50:00,
2013-07-31 20:51:00,60.6,53.0,29.94,SSW,211,0.0,0.0,76,0.00,,---,0.00,VWS V14.01,2013-08-01 00:51:00,
2013-07-31 20:55:00,64.6,55.0,29.94,SSW,212,0.0,0.0,71,0.00,,---,0.00,VWS V14.01,2013-08-01 00:55:00,
2013-07-31 20:56:00,60.1,52.9,29.94,SSW,211,0.0,0.0,77,0.00,,---,0.00,VWS V14.01,2013-08-01 00:56:00,
2013-07-31 21:00:00,64.2,54.6,29.94,SSW,211,0.0,0.0,71,0.00,,---,0.00,VWS V14.01,2013-08-01 01:00:00,
2013-07-31 21:01:00,59.7,52.9,29.94,SSW,208,0.0,0.0,78,0.00,,---,0.00,VWS V14.01,2013-08-01 01:01:00,
2013-07-31 21:05:00,63.9,54.7,29.94,SSW,211,0.0,0.4,72,0.00,,---,0.00,VWS V14.01,2013-08-01 01:05:00,
2013-07-31 21:06:00,59.5,53.7,29.94,SSW,211,0.0,0.0,81,0.00,,---,0.00,VWS V14.01,2013-08-01 01:06:00,
2013-07-31 21:10:00,63.3,54.9,29.94,SSW,211,0.0,0.0,74,0.00,,---,0.00,VWS V14.01,2013-08-01 01:10:00,
2013-07-31 21:11:00,59.2,53.7,29.94,SSW,211,0.0,0.0,82,0.00,,---,0.00,VWS V14.01,2013-08-01 01:11:00,
2013-07-31 21:15:00,62.8,54.4,29.94,SSW,212,0.0,0.0,74,0.00,,---,0.00,VWS V14.01,2013-08-01 01:15:00,
2013-07-31 21:16:00,59.2,54.4,29.94,SSW,211,0.0,0.0,84,0.00,,---,0.00,VWS V14.01,2013-08-01 01:16:00,
2013-07-31 21:20:00,62.6,54.2,29.94,SSW,211,0.0,0.0,74,0.00,,---,0.00,VWS V14.01,2013-08-01 01:20:00,
2013-07-31 21:21:00,59.4,54.2,29.94,SSW,209,0.0,0.0,83,0.00,,---,0.00,VWS V14.01,2013-08-01 01:21:00,
2013-07-31 21:25:00,62.1,54.0,29.94,SSW,211,0.0,0.0,75,0.00,,---,0.00,VWS V14.01,2013-08-01 01:25:00,
2013-07-31 21:30:00,61.9,53.5,29.94,SSW,211,0.0,0.0,74,0.00,,---,0.00,VWS V14.01,2013-08-01 01:30:00,
2013-07-31 21:31:00,58.6,53.8,29.94,SSW,211,0.0,0.0,84,0.00,,---,0.00,VWS V14.01,2013-08-01 01:31:00,
2013-07-31 21:35:00,61.3,53.4,29.94,SSW,211,0.0,0.0,75,0.00,,---,0.00,VWS V14.01,2013-08-01 01:35:00,
2013-07-31 21:36:00,58.6,54.2,29.94,SSW,211,0.0,0.0,85,0.00,,---,0.00,VWS V14.01,2013-08-01 01:36:00,
2013-07-31 21:40:00,61.2,53.2,29.94,SSW,211,0.0,0.0,75,0.00,,---,0.00,VWS V14.01,2013-08-01 01:40:00,
2013-07-31 21:45:00,61.0,53.4,29.94,SSW,211,0.0,0.0,76,0.00,,---,0.00,VWS V14.01,2013-08-01 01:45:00,
2013-07-31 21:46:00,57.9,53.4,29.94,SSW,211,0.0,0.0,85,0.00,,---,0.00,VWS V14.01,2013-08-01 01:46:00,
2013-07-31 21:50:00,60.6,53.0,29.94,SSW,211,0.0,0.0,76,0.00,,---,0.00,VWS V14.01,2013-08-01 01:50:00,
2013-07-31 21:55:00,60.1,52.9,29.94,SSW,211,0.0,0.0,77,0.00,,---,0.00,VWS V14.01,2013-08-01 01:55:00,
2013-07-31 21:56:00,58.1,54.3,29.94,SSW,211,0.0,2.7,87,0.00,,---,0.00,VWS V14.01,2013-08-01 01:56:00,
2013-07-31 22:00:00,59.7,52.9,29.94,SSW,208,0.0,0.0,78,0.00,,---,0.00,VWS V14.01,2013-08-01 02:00:00,
2013-07-31 22:01:00,58.5,54.3,29.94,SSW,211,0.0,0.0,86,0.00,,---,0.00,VWS V14.01,2013-08-01 02:01:00,
2013-07-31 22:05:00,59.5,53.7,29.94,SSW,211,0.0,0.0,81,0.00,,---,0.00,VWS V14.01,2013-08-01 02:05:00,
2013-07-31 22:10:00,59.2,53.7,29.94,SSW,211,0.0,0.0,82,0.00,,---,0.00,VWS V14.01,2013-08-01 02:10:00,
2013-07-31 22:11:00,58.5,54.3,29.94,SSW,211,2.7,4.0,86,0.00,,---,0.00,VWS V14.01,2013-08-01 02:11:00,
2013-07-31 22:15:00,59.2,54.4,29.94,SSW,211,0.0,0.0,84,0.00,,---,0.00,VWS V14.01,2013-08-01 02:15:00,
2013-07-31 22:16:00,58.3,54.1,29.94,SSW,211,2.2,3.6,86,0.00,,---,0.00,VWS V14.01,2013-08-01 02:16:00,
2013-07-31 22:20:00,59.4,54.2,29.94,SSW,209,0.0,0.0,83,0.00,,---,0.00,VWS V14.01,2013-08-01 02:20:00,
2013-07-31 22:25:00,59.0,53.8,29.94,SSW,211,0.0,0.0,83,0.00,,---,0.00,VWS V14.01,2013-08-01 02:25:00,
2013-07-31 22:26:00,58.1,53.9,29.94,SSW,211,1.8,2.2,86,0.00,,---,0.00,VWS V14.01,2013-08-01 02:26:00,
2013-07-31 22:30:00,58.6,53.8,29.94,SSW,211,0.0,0.0,84,0.00,,---,0.00,VWS V14.01,2013-08-01 02:30:00,
2013-07-31 22:35:00,58.6,54.2,29.94,SSW,211,0.0,0.0,85,0.00,,---,0.00,VWS V14.01,2013-08-01 02:35:00,
2013-07-31 22:36:00,57.7,53.9,29.94,SSW,211,1.8,4.5,87,0.00,,---,0.00,VWS V14.01,2013-08-01 02:36:00,
2013-07-31 22:40:00,58.3,53.5,29.94,SSW,211,0.0,0.0,84,0.00,,---,0.00,VWS V14.01,2013-08-01 02:40:00,
2013-07-31 22:41:00,57.9,54.4,29.94,SSW,212,3.1,4.0,88,0.00,,---,0.00,VWS V14.01,2013-08-01 02:41:00,
2013-07-31 22:45:00,57.9,53.5,29.94,SSW,211,0.0,0.0,85,0.00,,---,0.00,VWS V14.01,2013-08-01 02:45:00,
2013-07-31 22:50:00,57.9,54.1,29.94,SSW,211,0.0,0.0,87,0.00,,---,0.00,VWS V14.01,2013-08-01 02:50:00,
2013-07-31 22:51:00,58.1,54.3,29.94,SSW,211,4.5,5.4,87,0.00,,---,0.00,VWS V14.01,2013-08-01 02:51:00,
2013-07-31 22:55:00,58.1,54.3,29.94,SSW,211,0.0,2.7,87,0.00,,---,0.00,VWS V14.01,2013-08-01 02:55:00,
2013-07-31 23:00:00,58.5,54.3,29.94,SSW,211,0.0,0.0,86,0.00,,---,0.00,VWS V14.01,2013-08-01 03:00:00,
2013-07-31 23:01:00,58.3,54.1,29.94,SSW,211,4.0,4.9,86,0.00,,---,0.00,VWS V14.01,2013-08-01 03:01:00,
2013-07-31 23:05:00,58.3,54.1,29.94,SSW,211,0.0,0.0,86,0.00,,---,0.00,VWS V14.01,2013-08-01 03:05:00,
2013-07-31 23:06:00,58.1,53.9,29.94,SSW,211,5.4,5.8,86,0.00,,---,0.00,VWS V14.01,2013-08-01 03:06:00,
2013-07-31 23:10:00,58.5,54.3,29.94,SSW,211,2.7,4.0,86,0.00,,---,0.00,VWS V14.01,2013-08-01 03:10:00,
2013-07-31 23:15:00,58.3,54.1,29.94,SSW,211,2.2,3.6,86,0.00,,---,0.00,VWS V14.01,2013-08-01 03:15:00,
2013-07-31 23:16:00,58.3,53.8,29.94,SSW,211,5.8,5.8,85,0.00,,---,0.00,VWS V14.01,2013-08-01 03:16:00,
2013-07-31 23:20:00,58.3,54.1,29.94,SSW,211,0.0,3.1,86,0.00,,---,0.00,VWS V14.01,2013-08-01 03:20:00,
2013-07-31 23:25:00,58.1,53.9,29.94,SSW,211,1.8,2.2,86,0.00,,---,0.00,VWS V14.01,2013-08-01 03:25:00,
2013-07-31 23:26:00,58.5,54.0,29.94,SSW,208,4.5,6.3,85,0.00,,---,0.00,VWS V14.01,2013-08-01 03:26:00,
2013-07-31 23:30:00,57.9,54.1,29.94,SSW,212,2.7,3.1,87,0.00,,---,0.00,VWS V14.01,2013-08-01 03:30:00,
2013-07-31 23:31:00,58.3,53.8,29.94,SSW,201,4.0,8.9,85,0.00,,---,0.00,VWS V14.01,2013-08-01 03:31:00,
2013-07-31 23:35:00,57.7,53.9,29.94,SSW,211,1.8,4.5,87,0.00,,---,0.00,VWS V14.01,2013-08-01 03:35:00,
2013-07-31 23:40:00,57.9,54.4,29.94,SSW,212,3.1,4.0,88,0.00,,---,0.00,VWS V14.01,2013-08-01 03:40:00,
2013-07-31 23:41:00,58.1,53.9,29.94,SSW,212,3.6,6.7,86,0.00,,---,0.00,VWS V14.01,2013-08-01 03:41:00,
2013-07-31 23:45:00,58.1,54.3,29.94,SSW,211,3.6,4.0,87,0.00,,---,0.00,VWS V14.01,2013-08-01 03:45:00,
2013-07-31 23:50:00,58.1,54.3,29.94,SSW,211,4.5,5.4,87,0.00,,---,0.00,VWS V14.01,2013-08-01 03:50:00,
2013-07-31 23:51:00,57.9,53.8,29.94,SSW,212,4.5,6.7,86,0.00,,---,0.00,VWS V14.01,2013-08-01 03:51:00,
2013-07-31 23:55:00,58.3,54.1,29.94,SSW,211,3.1,5.4,86,0.00,,---,0.00,VWS V14.01,2013-08-01 03:55:00,
2013-07-31 23:56:00,57.7,53.6,29.94,SSW,205,6.3,9.4,86,0.00,,---,0.00,VWS V14.01,2013-08-01 03:56:00,